Flight Track Log - Related Links

Times and Time Zones

All times are in EDT time to prevent confusion due to time zone crossing. See the UPS2560 flight status page for this flight to view local times or setup timezone preferences in your user account.

Time Position Orientation Groundspeed Altitude Reporting Facility
EDT Latitude Longitude Course Direction KTS MPH feet Rate Location/Type
Thu 03:41:01 PM 38.1820 -85.7460 345° North 24 28  Level FlightAware ADS-B
Thu 03:41:31 PM 38.1850 -85.7470 345° North 31 36 667 Level FlightAware ADS-B
Thu 03:42:01 PM 38.1830 -85.7480 201° Southwest 27 31 897 Level FlightAware ADS-B
Thu 03:42:23 PM 38.1750 -85.7450 164° South 130 150 1,368 Level FlightAware ADS-B
Thu 03:42:58 PM 38.1500 -85.7370 166° South 163 188 1,300 1,935 Climbing FlightAware ADS-B
Thu 03:43:25 PM 38.1270 -85.7330 172° South 204 235 2,000 1,529 Climbing FlightAware ADS-B
Thu 03:43:49 PM 38.1010 -85.7390 190° South 253 291 2,600 1,950 Climbing FlightAware ADS-B
Thu 03:44:05 PM 38.0870 -85.7530 218° Southwest 263 303 3,300 3,429 Climbing FlightAware ADS-B
Thu 03:44:17 PM 38.0790 -85.7710 241° Southwest 266 306 4,200 4,200 Climbing FlightAware ADS-B
Thu 03:44:25 PM 38.0770 -85.7810 256° West 267 307 4,700 3,667 Climbing FlightAware ADS-B
Thu 03:44:53 PM 38.0850 -85.8240 283° West 277 319 6,400 3,600 Climbing FlightAware ADS-B
Thu 03:45:05 PM 38.0960 -85.8390 313° West 283 326 7,100 2,105 Climbing FlightAware ADS-B
Thu 03:46:47 PM 38.2140 -85.8700 348° North 330 380 10,400 2,100 Climbing FlightAware ADS-B
Thu 03:47:25 PM 38.2980 -85.8910 349° North 389 448 12,000 2,096 Climbing FlightAware ADS-B
Thu 03:48:10 PM 38.3820 -85.9140 348° North 434 499 13,300 2,157 Climbing FlightAware ADS-B
Thu 03:48:54 PM 38.4700 -85.9370 348° North 451 519 15,200 2,759 Climbing FlightAware ADS-B
Thu 03:49:37 PM 38.5620 -85.9590 349° North 460 529 17,300 2,550 Climbing FlightAware ADS-B
Thu 03:50:14 PM 38.6380 -85.9780 349° North 472 543 18,600 2,338 Climbing FlightAware ADS-B
Thu 03:50:54 PM 38.7250 -86.0030 347° North 477 549 20,300 2,325 Climbing FlightAware ADS-B
Thu 03:51:34 PM 38.8090 -86.0340 344° North 489 563 21,700 1,975 Climbing FlightAware ADS-B
Thu 03:52:13 PM 38.8920 -86.0830 335° Northwest 500 575 22,900 1,792 Climbing FlightAware ADS-B
Thu 03:52:51 PM 38.9740 -86.1300 336° Northwest 513 590 24,000 1,786 Climbing FlightAware ADS-B
Thu 03:53:37 PM 39.0720 -86.1860 336° Northwest 519 597 25,400 2,217 Climbing FlightAware ADS-B
Thu 03:54:23 PM 39.1730 -86.2450 336° Northwest 515 593 27,400 2,500 Climbing FlightAware ADS-B
Thu 03:55:01 PM 39.2550 -86.2930 336° Northwest 507 583 28,900 1,263 Climbing FlightAware ADS-B
Thu 03:55:39 PM 39.3370 -86.3410 336° Northwest 502 578 29,000 308 Climbing FlightAware ADS-B
Thu 03:56:19 PM 39.4220 -86.3900 336° Northwest 502 578 29,300 1,412 Climbing FlightAware ADS-B
Thu 03:57:04 PM 39.5140 -86.4450 335° Northwest 494 568 31,000 2,182 Climbing FlightAware ADS-B
Thu 03:57:47 PM 39.6050 -86.4990 335° Northwest 489 563 32,500 1,663 Climbing FlightAware ADS-B
Thu 03:58:27 PM 39.6860 -86.5470 335° Northwest 487 560 33,300 1,111 Climbing FlightAware ADS-B
Thu 03:59:08 PM 39.7710 -86.5970 336° Northwest 491 565 34,000 500 Climbing FlightAware ADS-B
Thu 03:59:51 PM 39.8600 -86.6500 335° Northwest 490 564 34,000  Level FlightAware ADS-B
Thu 04:00:35 PM 39.9510 -86.7040 336° Northwest 489 563 34,000  Level FlightAware ADS-B
Thu 04:01:15 PM 40.0320 -86.7520 336° Northwest 489 563 34,000  Level FlightAware ADS-B
Thu 04:01:59 PM 40.1240 -86.8080 335° Northwest 492 566 34,000  Level FlightAware ADS-B
Thu 04:02:41 PM 40.2100 -86.8590 336° Northwest 490 564 34,000  Level FlightAware ADS-B
Thu 04:03:17 PM 40.2860 -86.9050 335° Northwest 489 563 34,000  Level FlightAware ADS-B
Thu 04:04:01 PM 40.3740 -86.9590 335° Northwest 488 562 34,000  Level FlightAware ADS-B
Thu 04:04:43 PM 40.4460 -87.0370 321° Northwest 482 555 34,000  Level FlightAware ADS-B
Thu 04:05:25 PM 40.4960 -87.1390 303° West 479 551 34,000  Level FlightAware ADS-B
Thu 04:06:05 PM 40.5400 -87.2410 300° West 479 551 34,000  Level FlightAware ADS-B
Thu 04:06:50 PM 40.5880 -87.3550 299° West 478 550 34,000  Level FlightAware ADS-B
Thu 04:07:25 PM 40.6260 -87.4440 299° West 478 550 34,000  Level FlightAware ADS-B
Thu 04:08:34 PM 40.6980 -87.6130 299° West 476 548 34,000  Level FlightAware ADS-B
Thu 04:09:00 PM 40.7250 -87.6790 298° West 476 548 34,000  Level FlightAware ADS-B
Thu 04:09:45 PM 40.7710 -87.7880 299° West 477 549 34,000  Level FlightAware ADS-B
Thu 04:10:29 PM 40.8220 -87.9110 299° West 478 550 34,000  Level FlightAware ADS-B
Thu 04:11:39 PM 40.8640 -88.0100 299° West 480 552 34,000  Level FlightAware ADS-B
Thu 04:12:22 PM 40.9430 -88.2020 299° West 484 557 34,000 71 Level FlightAware ADS-B
Thu 04:13:03 PM 40.9870 -88.3090 299° West 485 558 34,100  Climbing FlightAware ADS-B
Thu 04:13:41 PM 41.0280 -88.4070 299° West 487 560 34,000  Descending FlightAware ADS-B
Thu 04:14:27 PM 41.0770 -88.5290 298° West 487 560 34,100  Climbing FlightAware ADS-B
Thu 04:15:08 PM 41.1220 -88.6380 299° West 484 557 34,000 -72 Descending FlightAware ADS-B
Thu 04:15:50 PM 41.1660 -88.7480 298° West 483 556 34,000  Level FlightAware ADS-B
Thu 04:16:26 PM 41.2030 -88.8400 298° West 482 555 34,000  Level FlightAware ADS-B
Thu 04:17:08 PM 41.2480 -88.9510 298° West 480 552 34,000  Level FlightAware ADS-B
Thu 04:17:50 PM 41.2900 -89.0560 298° West 480 552 34,000  Level FlightAware ADS-B
Thu 04:18:35 PM 41.3390 -89.1780 298° West 482 555 34,000  Level FlightAware ADS-B
Thu 04:19:11 PM 41.3770 -89.2720 298° West 486 559 34,000  Level FlightAware ADS-B
Thu 04:19:54 PM 41.4210 -89.3840 298° West 489 563 34,000  Level FlightAware ADS-B
Thu 04:23:40 PM 41.6380 -89.9360 298° West 490 564 34,000  Level FlightAware ADS-B
Thu 04:24:17 PM 41.6840 -90.0530 298° West 490 564 34,000  Level FlightAware ADS-B
Thu 04:25:24 PM 41.7520 -90.2300 297° West 492 566 34,000  Level FlightAware ADS-B
Thu 04:26:12 PM 41.8040 -90.3660 297° West 496 571 34,000  Level FlightAware ADS-B
Thu 04:26:54 PM 41.8570 -90.5040 297° West 499 574 34,000 77 Level FlightAware ADS-B
Thu 04:27:30 PM 41.8990 -90.6130 297° West 501 577 34,100  Climbing FlightAware ADS-B
Thu 04:28:13 PM 41.9450 -90.7350 297° West 501 577 34,000 -65 Descending FlightAware ADS-B
Thu 04:29:02 PM 41.9950 -90.8680 297° West 500 575 34,000  Level FlightAware ADS-B
Thu 04:29:38 PM 42.0340 -90.9700 297° West 500 575 34,000  Level FlightAware ADS-B
Thu 04:30:06 PM 42.0610 -91.0440 296° West 499 574 34,000  Level FlightAware ADS-B
Thu 04:30:50 PM 42.1070 -91.1670 297° West 498 573 34,000  Level FlightAware ADS-B
Thu 04:31:26 PM 42.1440 -91.2650 297° West 497 572 34,000  Level FlightAware ADS-B
Thu 04:32:06 PM 42.1850 -91.3760 297° West 496 571 34,000  Level FlightAware ADS-B
Thu 04:32:52 PM 42.2320 -91.5040 296° West 498 573 34,000  Level FlightAware ADS-B
Thu 04:33:32 PM 42.2710 -91.6090 297° West 499 574 34,000 -438 Level FlightAware ADS-B
Thu 04:34:28 PM 42.3290 -91.7690 296° West 501 577 33,300 -735 Descending FlightAware ADS-B
Thu 04:35:10 PM 42.3730 -91.8910 296° West 504 580 32,800 -714 Descending FlightAware ADS-B
Thu 04:35:52 PM 42.4150 -92.0060 296° West 504 580 32,300 -571 Descending FlightAware ADS-B
Thu 04:36:34 PM 42.4600 -92.1300 296° West 505 581 32,000 -217 Descending FlightAware ADS-B
Thu 04:37:15 PM 42.5010 -92.2440 296° West 506 582 32,000  Level FlightAware ADS-B
Thu 04:38:00 PM 42.5540 -92.3680 300° West 502 578 32,000  Level FlightAware ADS-B
Thu 04:38:36 PM 42.6150 -92.4470 316° Northwest 501 577 32,000  Level FlightAware ADS-B
Thu 04:39:24 PM 42.7130 -92.5110 334° Northwest 499 574 32,000 -502 Level FlightAware ADS-B
Thu 04:42:59 PM 43.1380 -92.7060 341° North 490 564 29,800 -952 Descending FlightAware ADS-B
Thu 04:43:36 PM 43.2290 -92.7480 341° North 477 549 28,000 -2,579 Descending FlightAware ADS-B
Thu 04:44:46 PM 43.3780 -92.8180 341° North 464 534 25,200 -2,069 Descending FlightAware ADS-B
Thu 04:45:32 PM 43.4940 -92.8720 341° North 450 518 24,000 -1,364 Descending FlightAware ADS-B
Thu 04:46:14 PM 43.5780 -92.9110 341° North 447 514 23,200 -2,471 Descending FlightAware ADS-B
Thu 04:46:57 PM 43.6590 -92.9500 341° North 444 511 20,500 -3,545 Descending FlightAware ADS-B
Thu 04:47:42 PM 43.7480 -92.9910 342° North 436 502 18,000 -2,824 Descending FlightAware ADS-B
Thu 04:48:22 PM 43.8230 -93.0250 342° North 416 479 16,500 -2,286 Descending FlightAware ADS-B
Thu 04:49:06 PM 43.9000 -93.0630 340° North 391 450 14,800 -2,286 Descending FlightAware ADS-B
Thu 04:49:46 PM 43.9700 -93.0940 342° North 384 442 13,300 -2,132 Descending FlightAware ADS-B
Thu 04:50:22 PM 44.0280 -93.1220 341° North 376 433 12,100 -1,429 Descending FlightAware ADS-B
Thu 04:51:10 PM 44.1030 -93.1590 340° North 342 394 11,300 -837 Descending FlightAware ADS-B
Thu 04:51:48 PM 44.1590 -93.1850 342° North 313 360 10,900 -720 Descending FlightAware ADS-B
Thu 04:52:25 PM 44.2060 -93.2080 341° North 292 336 10,400 -568 Descending FlightAware ADS-B
Thu 04:53:23 PM 44.2900 -93.2170 356° North 342 394 10,000 -238 Descending FlightAware ADS-B
Thu 04:54:06 PM 44.3600 -93.2100 North 341 392 10,000  Level FlightAware ADS-B
Thu 04:54:38 PM 44.4100 -93.2050 North 341 392 10,000  Level FlightAware ADS-B
Thu 04:55:20 PM 44.4770 -93.1970 North 342 394 10,000  Level FlightAware ADS-B
Thu 04:56:03 PM 44.5440 -93.1910 North 340 391 10,000  Level FlightAware ADS-B
Thu 04:56:38 PM 44.6000 -93.1850 North 340 391 10,000 -185 Level FlightAware ADS-B
Thu 04:57:08 PM 44.6450 -93.1910 355° North 329 379 9,800 -310 Descending FlightAware ADS-B
Thu 04:57:36 PM 44.6830 -93.2150 336° Northwest 298 343 9,700 -536 Descending FlightAware ADS-B
Thu 04:58:04 PM 44.7180 -93.2360 337° Northwest 290 334 9,300 -1,038 Descending FlightAware ADS-B
Thu 04:58:28 PM 44.7470 -93.2530 337° Northwest 287 330 8,800 -1,222 Descending FlightAware ADS-B
Thu 04:58:58 PM 44.7830 -93.2750 337° Northwest 278 320 8,200 -828 Descending FlightAware ADS-B
Thu 04:59:26 PM 44.8140 -93.2970 333° Northwest 245 282 8,000 -136 Descending FlightAware ADS-B
Thu 04:59:42 PM 44.8240 -93.3150 308° West 210 242 8,100 136 Climbing FlightAware ADS-B
Thu 05:00:10 PM 44.8360 -93.3460 299° West 196 226 8,100 -113 Level FlightAware ADS-B
Thu 05:00:35 PM 44.8470 -93.3750 298° West 194 223 8,000 -667 Descending FlightAware ADS-B
Thu 05:01:04 PM 44.8550 -93.4100 288° West 190 219 7,500 -1,050 Descending FlightAware ADS-B
Thu 05:01:15 PM 44.8570 -93.4220 283° West 188 216 7,300 -1,029 Descending FlightAware ADS-B
Thu 05:01:39 PM 44.8640 -93.4500 289° West 186 214 6,900 -1,245 Descending FlightAware ADS-B
Thu 05:02:08 PM 44.8720 -93.4840 288° West 189 217 6,200 -1,368 Descending FlightAware ADS-B
Thu 05:02:36 PM 44.8790 -93.5170 287° West 192 221 5,600 -1,317 Descending FlightAware ADS-B
Thu 05:02:49 PM 44.8870 -93.5300 311° West 209 241 5,300 -1,111 Descending FlightAware ADS-B
Thu 05:03:03 PM 44.9000 -93.5360 342° North 224 258 5,100 -235 Descending FlightAware ADS-B
Thu 05:03:40 PM 44.9310 -93.5060 34° Northeast 239 275 5,100  Level FlightAware ADS-B
Thu 05:03:52 PM 44.9370 -93.4880 65° Northeast 239 275 5,100  Level FlightAware ADS-B
Thu 05:04:00 PM 44.9380 -93.4760 83° East 234 269 5,100 -818 Level FlightAware ADS-B
Thu 05:04:36 PM 44.9350 -93.4230 95° East 226 260 4,500 -1,200 Descending FlightAware ADS-B
Thu 05:05:00 PM 44.9330 -93.3890 95° East 216 249 3,900 -1,358 Descending FlightAware ADS-B
Thu 05:05:29 PM 44.9300 -93.3500 96° East 195 224 3,300 -1,552 Descending FlightAware ADS-B
Thu 05:05:58 PM 44.9230 -93.3160 106° East 179 206 2,400 -1,579 Descending FlightAware ADS-B
Thu 05:06:26 PM 44.9120 -93.2900 121° Southeast 170 196 1,800 -1,071 Descending FlightAware ADS-B
Thu 05:06:54 PM 44.9000 -93.2620 121° Southeast 171 197 1,400 -923 Descending FlightAware ADS-B
Thu 05:07:18 PM 44.8900 -93.2390 122° Southeast 165 190 1,000 -698 Descending FlightAware ADS-B
Thu 05:07:37 PM 44.8830 -93.2230 122° Southeast 154 177 900 -316 Descending FlightAware ADS-B
Thu 05:08:06 PM 44.8770 -93.2090 121° Southeast 30 35 -1,862 Descending FlightAware ADS-B
Thu 05:08:13 PM 44.8760 -93.2080 145° Southeast 19 22  Level FlightAware ADS-B
Thu 05:08:38 PM 44.8760 -93.2100 270° West 30 35  Level FlightAware ADS-B
Thu 05:09:06 PM 44.8770 -93.2120 305° West 18 21  Level FlightAware ADS-B
Thu 05:09:34 PM 44.8780 -93.2150 295° West 23 26  Level FlightAware ADS-B
Thu 05:10:02 PM 44.8800 -93.2200 299° West 27 31  Level FlightAware ADS-B
Thu 05:10:23 PM 44.8810 -93.2220 305° West 16 18  Level FlightAware ADS-B
Thu 05:10:54 PM 44.8800 -93.2250 245° Southwest 20 23  Level FlightAware ADS-B
Thu 05:12:07 PM 44.8810 -93.2320 281° West 22 25  Level FlightAware ADS-B
Thu 05:12:35 PM 44.8820 -93.2340 305° West 19 22  Level FlightAware ADS-B
Thu 05:15:00 PM 44.8820 -93.2218 90° East  Level Estimated
Thu 05:16:00 PM 44.8820 -93.2218 90° East  Level Estimated

Login

Don't have an account? Register now (free) for customized features, flight alerts, and more!